Time;durP1;ratioP1;P1;durP2;ratioP2;P2;SDS_P1;SDS_P2;PMS_P1;PMS_P2;Temp;Humidity;BMP_temperature;BMP_pressure;BME280_temperature;BME280_humidity;BME280_pressure;Samples;Min_cycle;Max_cycle;Signal;HPM_P1;HPM_P2
2021/07/06 00:01:05;;;;;;;5.05;3.15;;;17.30;1.00;;;;;;5089031;28;20020;-75
2021/07/06 00:03:31;;;;;;;4.88;3.13;;;17.30;1.00;;;;;;5085358;28;20013;-75
2021/07/06 00:05:57;;;;;;;4.68;2.72;;;17.30;1.00;;;;;;5097187;28;20012;-75
2021/07/06 00:08:23;;;;;;;4.97;3.22;;;17.30;1.00;;;;;;5074383;28;20033;-74
2021/07/06 00:10:49;;;;;;;4.72;3.28;;;17.30;1.00;;;;;;5070624;28;20092;-76
2021/07/06 00:13:14;;;;;;;4.38;3.40;;;17.20;1.00;;;;;;5063078;28;20040;-75
2021/07/06 00:15:40;;;;;;;6.35;3.10;;;17.30;1.00;;;;;;5056381;28;20052;-76
2021/07/06 00:18:06;;;;;;;5.60;2.70;;;17.30;1.00;;;;;;5069534;28;20056;-76
2021/07/06 00:20:32;;;;;;;4.35;2.47;;;17.30;1.00;;;;;;5069363;28;20059;-77
2021/07/06 00:23:01;;;;;;;3.15;2.38;;;17.30;1.00;;;;;;5073245;28;20028;-76
2021/07/06 00:25:27;;;;;;;3.35;2.63;;;17.30;1.00;;;;;;5073169;28;20107;-77
2021/07/06 00:27:53;;;;;;;4.45;3.10;;;17.20;1.00;;;;;;5064837;28;20060;-76
2021/07/06 00:30:19;;;;;;;5.68;2.97;;;17.20;1.00;;;;;;5067494;28;20036;-77
2021/07/06 00:32:45;;;;;;;4.25;2.95;;;17.20;1.00;;;;;;5063859;28;20029;-76
2021/07/06 00:35:11;;;;;;;5.53;2.80;;;17.20;1.00;;;;;;5070240;28;20155;-77
2021/07/06 00:37:37;;;;;;;7.97;2.95;;;17.10;1.00;;;;;;5058269;28;20044;-77
2021/07/06 00:40:06;;;;;;;3.13;2.83;;;17.10;1.00;;;;;;5071979;28;20021;-76
2021/07/06 00:42:32;;;;;;;9.77;3.00;;;17.10;1.00;;;;;;5067377;28;20081;-77
2021/07/06 00:44:58;;;;;;;6.40;2.63;;;17.10;1.00;;;;;;5065242;28;20436;-77
2021/07/06 00:47:36;;;;;;;6.85;3.05;;;17.10;1.00;;;;;;5083737;28;20028;-76
2021/07/06 00:50:08;;;;;;;4.40;3.22;;;17.10;1.00;;;;;;5066244;28;20020;-77
2021/07/06 00:52:34;;;;;;;4.47;3.20;;;17.00;1.00;;;;;;5061380;28;20119;-77
2021/07/06 00:55:00;;;;;;;5.68;3.13;;;17.00;1.00;;;;;;5063609;28;20108;-77
2021/07/06 00:57:29;;;;;;;3.28;2.92;;;17.00;1.00;;;;;;5058057;28;20039;-77
2021/07/06 01:00:22;;;;;;;3.53;2.70;;;16.90;1.00;;;;;;5066574;28;20035;-76
2021/07/06 01:02:49;;;;;;;5.25;3.17;;;16.80;1.00;;;;;;5048804;28;20041;-77
2021/07/06 01:05:16;;;;;;;4.25;2.67;;;16.80;1.00;;;;;;5074813;28;20024;-76
2021/07/06 01:07:42;;;;;;;6.03;2.78;;;16.80;1.00;;;;;;5068578;28;20020;-76
2021/07/06 01:10:09;;;;;;;6.68;2.38;;;16.80;1.00;;;;;;5067343;28;20381;-77
2021/07/06 01:12:35;;;;;;;5.65;2.83;;;16.80;1.00;;;;;;5063926;28;20382;-79
2021/07/06 01:15:04;;;;;;;3.40;3.03;;;16.80;1.00;;;;;;5063148;28;20449;-77
2021/07/06 01:17:30;;;;;;;7.40;3.10;;;16.80;1.00;;;;;;5052989;28;20032;-76
2021/07/06 01:19:58;;;;;;;4.30;2.42;;;16.70;1.00;;;;;;5050896;28;20433;-77
2021/07/06 01:22:32;;;;;;;4.80;2.38;;;16.70;1.00;;;;;;5048018;28;20032;-77
2021/07/06 01:24:59;;;;;;;5.15;2.83;;;16.70;1.00;;;;;;5057539;28;20044;-77
2021/07/06 01:27:25;;;;;;;3.28;2.38;;;16.60;1.00;;;;;;5058082;28;20025;-78
2021/07/06 01:29:54;;;;;;;2.95;2.45;;;16.60;1.00;;;;;;5037215;28;20116;-77
2021/07/06 01:32:19;;;;;;;3.95;2.72;;;16.60;1.00;;;;;;5046390;28;20052;-78
2021/07/06 01:34:45;;;;;;;3.45;2.10;;;16.50;1.00;;;;;;5058400;28;20029;-77
2021/07/06 01:37:14;;;;;;;2.80;2.50;;;16.60;1.00;;;;;;5074534;28;20048;-76
2021/07/06 01:39:40;;;;;;;4.57;2.40;;;16.60;1.00;;;;;;5068634;28;20041;-75
2021/07/06 01:42:06;;;;;;;3.60;2.90;;;16.60;1.00;;;;;;5066556;28;20021;-77
2021/07/06 01:44:31;;;;;;;3.53;2.40;;;16.60;1.00;;;;;;5062646;28;20029;-77
2021/07/06 01:46:57;;;;;;;4.13;2.10;;;16.70;1.00;;;;;;5061145;28;20108;-77
2021/07/06 01:49:22;;;;;;;3.60;2.80;;;16.70;1.00;;;;;;5060925;28;20029;-77
2021/07/06 01:51:48;;;;;;;10.70;2.85;;;16.70;1.00;;;;;;5072058;28;20430;-76
2021/07/06 01:54:15;;;;;;;3.90;2.50;;;16.70;1.00;;;;;;5049566;28;20033;-77
2021/07/06 01:56:43;;;;;;;2.97;2.03;;;16.70;1.00;;;;;;5070873;28;20028;-74
2021/07/06 01:59:09;;;;;;;4.78;1.92;;;16.70;1.00;;;;;;5062194;28;20090;-76
2021/07/06 02:01:37;;;;;;;4.07;1.92;;;16.70;1.00;;;;;;5057715;28;20657;-77
2021/07/06 02:04:04;;;;;;;5.22;2.42;;;16.60;1.00;;;;;;5060828;28;20029;-76
2021/07/06 02:06:30;;;;;;;2.88;2.25;;;16.60;1.00;;;;;;5069083;28;20021;-77
2021/07/06 02:08:56;;;;;;;2.72;2.20;;;16.60;1.00;;;;;;5056068;28;20036;-76
2021/07/06 02:11:22;;;;;;;3.95;2.40;;;16.60;1.00;;;;;;5072071;28;20028;-76
2021/07/06 02:13:48;;;;;;;3.08;2.25;;;16.60;1.00;;;;;;5079924;28;20049;-76
2021/07/06 02:16:14;;;;;;;3.92;2.15;;;16.60;1.00;;;;;;5055117;28;20026;-76
2021/07/06 02:18:40;;;;;;;2.88;2.28;;;16.60;1.00;;;;;;5033305;28;20034;-76
2021/07/06 02:21:07;;;;;;;5.30;2.95;;;16.60;1.00;;;;;;5072095;28;20051;-76
2021/07/06 02:23:32;;;;;;;2.13;1.92;;;16.50;1.00;;;;;;5066267;28;20047;-76
2021/07/06 02:26:01;;;;;;;2.17;1.98;;;16.50;1.00;;;;;;5061670;28;20453;-76
2021/07/06 02:28:27;;;;;;;3.40;2.40;;;16.40;1.00;;;;;;5064822;28;20466;-77
2021/07/06 02:30:52;;;;;;;2.80;2.50;;;16.40;1.00;;;;;;5072717;28;20040;-76
2021/07/06 02:33:19;;;;;;;5.53;2.33;;;16.30;1.00;;;;;;5064783;28;20017;-76
2021/07/06 02:35:45;;;;;;;3.40;2.38;;;16.40;1.00;;;;;;5071750;28;20557;-76
2021/07/06 02:38:11;;;;;;;2.33;2.17;;;16.40;1.00;;;;;;5073557;28;20021;-77
2021/07/06 02:40:37;;;;;;;3.97;2.30;;;16.30;1.00;;;;;;5071390;28;20481;-76
2021/07/06 02:43:03;;;;;;;3.00;2.63;;;16.30;1.00;;;;;;5064078;28;20017;-76
2021/07/06 02:45:29;;;;;;;4.70;2.25;;;16.30;1.00;;;;;;5057293;28;20490;-76
2021/07/06 02:47:55;;;;;;;17.63;3.53;;;16.30;1.00;;;;;;5059911;28;20035;-76
2021/07/06 02:50:23;;;;;;;5.90;2.65;;;16.40;1.00;;;;;;5065457;28;20503;-78
2021/07/06 02:52:50;;;;;;;7.60;2.75;;;16.30;1.00;;;;;;5055890;28;20028;-77
2021/07/06 02:55:16;;;;;;;5.43;3.22;;;16.30;1.00;;;;;;5061641;28;20098;-77
2021/07/06 02:57:43;;;;;;;12.43;3.63;;;16.30;1.00;;;;;;5037757;28;20097;-76
2021/07/06 03:00:16;;;;;;;8.02;3.67;;;16.30;1.00;;;;;;5048270;28;20070;-77
2021/07/06 03:02:45;;;;;;;10.63;3.05;;;16.30;1.00;;;;;;5037410;28;20030;-77
2021/07/06 03:05:12;;;;;;;4.15;2.72;;;16.30;1.00;;;;;;5041852;28;20048;-77
2021/07/06 03:07:38;;;;;;;8.63;2.58;;;16.30;1.00;;;;;;5064709;28;20111;-77
2021/07/06 03:10:06;;;;;;;4.22;2.72;;;16.30;1.00;;;;;;5057950;28;20398;-77
2021/07/06 03:12:31;;;;;;;8.70;3.50;;;16.20;1.00;;;;;;5064505;28;20107;-76
2021/07/06 03:14:57;;;;;;;9.00;3.40;;;16.20;1.00;;;;;;5046124;28;20065;-76
2021/07/06 03:17:23;;;;;;;8.27;2.65;;;16.20;1.00;;;;;;5046265;28;20032;-77
2021/07/06 03:19:48;;;;;;;4.63;3.15;;;16.10;1.00;;;;;;5050224;28;20381;-77
2021/07/06 03:22:14;;;;;;;8.48;2.75;;;16.10;1.00;;;;;;5055501;28;20063;-76
2021/07/06 03:24:39;;;;;;;3.53;2.33;;;16.10;1.00;;;;;;5057938;28;20024;-76
2021/07/06 03:27:05;;;;;;;5.68;2.55;;;16.10;1.00;;;;;;5050495;28;20506;-76
2021/07/06 03:29:31;;;;;;;3.65;2.72;;;16.10;1.00;;;;;;5056933;28;20029;-80
2021/07/06 03:31:57;;;;;;;5.93;3.05;;;16.10;1.00;;;;;;5069634;28;20024;-76
2021/07/06 03:34:22;;;;;;;7.18;3.65;;;16.20;1.00;;;;;;5061589;28;20021;-77
2021/07/06 03:36:48;;;;;;;4.13;3.58;;;16.10;1.00;;;;;;5069587;28;20074;-77
2021/07/06 03:39:14;;;;;;;6.53;3.70;;;16.10;1.00;;;;;;5044302;28;20033;-76
2021/07/06 03:41:39;;;;;;;4.03;3.00;;;16.10;1.00;;;;;;5069883;28;20049;-76
2021/07/06 03:44:05;;;;;;;5.38;2.92;;;16.20;1.00;;;;;;5057353;28;20028;-76
2021/07/06 03:46:30;;;;;;;5.25;3.83;;;16.30;1.00;;;;;;5066929;28;20440;-77
2021/07/06 03:48:56;;;;;;;6.75;3.30;;;16.30;1.00;;;;;;5058154;28;20032;-77
2021/07/06 03:51:21;;;;;;;6.57;3.40;;;16.50;1.00;;;;;;5042917;28;20474;-77
2021/07/06 03:53:47;;;;;;;3.80;2.88;;;16.50;1.00;;;;;;5050215;28;20025;-77
2021/07/06 03:56:13;;;;;;;5.15;2.65;;;16.60;1.00;;;;;;5066636;28;20032;-77
2021/07/06 03:58:38;;;;;;;3.92;2.33;;;16.60;1.00;;;;;;5065163;28;20036;-77
2021/07/06 04:01:04;;;;;;;3.50;2.90;;;17.00;1.00;;;;;;5064146;28;20037;-77
2021/07/06 04:03:29;;;;;;;4.82;2.63;;;17.10;1.00;;;;;;5066290;28;20024;-78
2021/07/06 04:05:55;;;;;;;5.70;3.85;;;17.00;1.00;;;;;;5064133;28;20640;-76
2021/07/06 04:08:20;;;;;;;5.30;2.70;;;17.00;1.00;;;;;;5055112;28;20536;-75
2021/07/06 04:10:46;;;;;;;4.95;2.60;;;17.20;1.00;;;;;;5073228;28;20127;-77
2021/07/06 04:13:11;;;;;;;4.38;2.50;;;17.30;1.00;;;;;;5060803;28;20027;-78
2021/07/06 04:15:38;;;;;;;3.55;2.60;;;17.40;1.00;;;;;;5072584;28;20054;-76
2021/07/06 04:18:04;;;;;;;5.15;3.20;;;17.50;1.00;;;;;;5055986;28;20028;-76
2021/07/06 04:20:32;;;;;;;3.78;2.78;;;17.50;1.00;;;;;;5070140;28;20443;-76
2021/07/06 04:22:58;;;;;;;9.20;2.38;;;17.70;1.00;;;;;;5064853;28;20120;-76
2021/07/06 04:25:23;;;;;;;5.57;2.70;;;17.80;1.00;;;;;;5070509;28;20051;-76
2021/07/06 04:27:51;;;;;;;7.00;3.08;;;17.80;1.00;;;;;;5076850;28;20032;-77
2021/07/06 04:30:18;;;;;;;3.33;3.00;;;17.90;1.00;;;;;;5062901;28;20037;-77
2021/07/06 04:32:44;;;;;;;3.92;2.78;;;18.20;1.00;;;;;;5061682;28;20028;-76
2021/07/06 04:35:10;;;;;;;4.03;2.70;;;18.30;1.00;;;;;;5058825;28;20036;-77
2021/07/06 04:37:36;;;;;;;6.32;3.40;;;18.50;1.00;;;;;;5067806;28;20025;-77
2021/07/06 04:40:03;;;;;;;10.50;3.78;;;18.60;1.00;;;;;;5067975;28;20474;-77
2021/07/06 04:42:28;;;;;;;6.07;3.33;;;18.50;1.00;;;;;;5068362;28;20027;-77
2021/07/06 04:44:54;;;;;;;6.35;3.40;;;18.50;1.00;;;;;;5069090;28;20033;-76
2021/07/06 04:47:19;;;;;;;9.35;3.75;;;18.60;1.00;;;;;;5066478;28;20470;-79
2021/07/06 04:49:45;;;;;;;4.97;3.03;;;18.60;1.00;;;;;;5063613;28;20406;-77
2021/07/06 04:52:11;;;;;;;8.63;3.80;;;18.90;1.00;;;;;;5075817;28;20024;-77
2021/07/06 04:54:36;;;;;;;5.35;3.20;;;19.30;99.90;;;;;;5061960;28;20036;-77
2021/07/06 04:57:02;;;;;;;4.60;3.05;;;20.10;99.90;;;;;;5074525;28;20444;-76
2021/07/06 04:59:28;;;;;;;4.68;3.00;;;20.50;99.90;;;;;;5057125;28;20056;-77
2021/07/06 05:01:53;;;;;;;6.00;3.72;;;20.40;99.90;;;;;;5072663;28;20086;-76
2021/07/06 05:04:20;;;;;;;6.40;3.42;;;20.40;99.90;;;;;;5062917;28;20060;-76
2021/07/06 05:06:46;;;;;;;6.35;3.00;;;20.60;99.90;;;;;;5072145;28;20100;-77
2021/07/06 05:09:11;;;;;;;3.85;3.45;;;21.00;99.90;;;;;;5062900;28;20088;-77
2021/07/06 05:11:37;;;;;;;7.25;3.92;;;21.50;99.90;;;;;;5071071;28;20482;-77
2021/07/06 05:14:03;;;;;;;5.10;3.33;;;21.30;99.90;;;;;;5066155;28;20036;-76
2021/07/06 05:16:30;;;;;;;7.78;3.38;;;20.90;99.90;;;;;;5056239;28;20108;-76
2021/07/06 05:18:56;;;;;;;4.50;2.95;;;20.60;99.90;;;;;;5052531;28;20025;-77
2021/07/06 05:21:22;;;;;;;6.03;3.38;;;20.20;99.90;;;;;;5084760;28;20020;-78
2021/07/06 05:23:47;;;;;;;5.45;3.40;;;20.00;99.90;;;;;;5068306;28;20031;-76
2021/07/06 05:26:14;;;;;;;7.20;3.70;;;19.80;99.90;;;;;;5067104;28;20043;-77
2021/07/06 05:28:39;;;;;;;7.38;3.20;;;19.90;99.90;;;;;;5071229;28;20375;-76
2021/07/06 05:31:06;;;;;;;5.88;3.75;;;20.70;99.90;;;;;;5059143;28;20053;-77
2021/07/06 05:33:31;;;;;;;8.43;3.17;;;21.60;99.90;;;;;;5057657;28;20103;-77
2021/07/06 05:35:57;;;;;;;14.45;4.20;;;22.30;99.90;;;;;;5071991;28;20040;-78
2021/07/06 05:38:23;;;;;;;8.30;3.28;;;22.30;99.90;;;;;;5066056;28;20021;-76
2021/07/06 05:40:55;;;;;;;7.30;3.60;;;22.50;99.90;;;;;;5058683;28;20553;-76
2021/07/06 05:43:22;;;;;;;6.60;3.83;;;23.10;99.90;;;;;;5067907;28;20474;-75
2021/07/06 05:45:52;;;;;;;12.68;3.15;;;23.50;99.90;;;;;;5072305;28;20036;-76
2021/07/06 05:48:17;;;;;;;7.03;2.30;;;24.20;99.90;;;;;;5062826;28;20479;-77
2021/07/06 05:50:43;;;;;;;5.82;2.63;;;24.60;99.90;;;;;;5065581;28;20050;-77
2021/07/06 05:53:10;;;;;;;4.50;2.05;;;25.10;99.90;;;;;;5058286;28;20063;-77
2021/07/06 05:55:36;;;;;;;5.75;2.22;;;25.40;99.90;;;;;;5065288;28;20021;-76
2021/07/06 05:58:02;;;;;;;7.85;2.13;;;25.40;99.90;;;;;;5057566;28;20104;-76
2021/07/06 06:00:28;;;;;;;4.68;1.42;;;25.60;99.90;;;;;;5055507;28;20111;-77
2021/07/06 06:02:53;;;;;;;5.18;1.60;;;25.70;99.90;;;;;;5057926;28;20079;-76
2021/07/06 06:05:19;;;;;;;5.13;2.17;;;25.60;99.90;;;;;;5065143;28;20554;-77
2021/07/06 06:07:46;;;;;;;4.95;1.50;;;25.40;99.90;;;;;;5053701;28;20057;-76
2021/07/06 06:10:12;;;;;;;4.45;1.45;;;25.80;99.90;;;;;;5056767;28;20091;-77
2021/07/06 06:12:38;;;;;;;5.15;2.53;;;25.80;99.90;;;;;;5061407;28;20090;-76
2021/07/06 06:15:07;;;;;;;4.78;1.67;;;25.90;99.90;;;;;;5048681;28;20052;-77
2021/07/06 06:17:32;;;;;;;15.48;3.55;;;25.80;99.90;;;;;;5048318;28;20134;-76
2021/07/06 06:19:58;;;;;;;5.30;1.80;;;25.90;99.90;;;;;;5064710;28;20039;-77
2021/07/06 06:22:24;;;;;;;1.20;0.82;;;26.30;99.90;;;;;;5070025;28;20036;-78
2021/07/06 06:24:50;;;;;;;3.80;2.35;;;26.30;99.90;;;;;;5064603;28;20103;-76
2021/07/06 06:27:16;;;;;;;6.80;1.75;;;26.70;99.90;;;;;;5060165;28;20560;-76
2021/07/06 06:29:42;;;;;;;2.78;1.00;;;26.30;99.90;;;;;;5058445;28;20021;-76
2021/07/06 06:32:08;;;;;;;2.13;0.90;;;25.70;99.90;;;;;;5058180;28;20032;-76
2021/07/06 06:34:34;;;;;;;1.38;0.90;;;25.00;99.90;;;;;;5068822;28;20498;-77
2021/07/06 06:36:59;;;;;;;1.10;1.00;;;24.70;99.90;;;;;;5063653;28;20059;-76
2021/07/06 06:39:25;;;;;;;1.80;1.20;;;24.10;99.90;;;;;;5067245;28;20040;-77
2021/07/06 06:41:51;;;;;;;1.50;1.00;;;24.00;99.90;;;;;;5051586;28;20398;-76
2021/07/06 06:44:17;;;;;;;1.48;1.00;;;23.70;99.90;;;;;;5059734;28;20025;-76
2021/07/06 06:46:43;;;;;;;3.35;0.93;;;23.70;99.90;;;;;;5063599;28;20429;-76
2021/07/06 06:49:09;;;;;;;2.47;1.00;;;23.70;99.90;;;;;;5058679;28;20024;-76
2021/07/06 06:51:35;;;;;;;4.00;1.20;;;23.60;99.90;;;;;;5061375;28;20025;-76
2021/07/06 06:54:01;;;;;;;1.17;1.08;;;23.70;99.90;;;;;;5072298;28;20025;-77
2021/07/06 06:56:28;;;;;;;1.55;0.90;;;23.80;99.90;;;;;;5059065;28;20322;-75
2021/07/06 06:58:54;;;;;;;1.30;1.10;;;23.80;99.90;;;;;;5054616;28;20021;-77
2021/07/06 07:01:20;;;;;;;2.47;1.30;;;23.90;99.90;;;;;;5071860;28;20024;-76
2021/07/06 07:03:46;;;;;;;3.75;1.02;;;23.90;99.90;;;;;;5055029;28;20509;-76
2021/07/06 07:06:12;;;;;;;4.82;1.10;;;23.90;99.90;;;;;;5058782;28;20021;-76
2021/07/06 07:08:37;;;;;;;3.58;1.00;;;24.10;99.90;;;;;;5067290;28;20034;-78
2021/07/06 07:11:03;;;;;;;2.28;0.90;;;24.20;99.90;;;;;;5065244;28;20482;-78
2021/07/06 07:13:28;;;;;;;2.80;0.90;;;24.40;99.90;;;;;;5083219;28;20056;-77
2021/07/06 07:15:54;;;;;;;6.50;0.90;;;24.60;99.90;;;;;;5047765;28;20075;-76
2021/07/06 07:18:20;;;;;;;1.08;0.80;;;24.70;99.90;;;;;;5052241;28;20509;-76
2021/07/06 07:20:45;;;;;;;2.83;0.80;;;24.80;99.90;;;;;;5067872;28;20029;-77
2021/07/06 07:23:11;;;;;;;0.82;0.80;;;25.20;99.90;;;;;;5045496;28;20116;-77
2021/07/06 07:25:37;;;;;;;2.20;1.00;;;25.30;99.90;;;;;;5033583;28;20022;-77
2021/07/06 07:28:03;;;;;;;3.17;0.60;;;25.30;99.90;;;;;;5059870;28;20029;-75
2021/07/06 07:30:28;;;;;;;2.38;0.90;;;25.40;99.90;;;;;;5045467;28;20044;-76
2021/07/06 07:32:54;;;;;;;2.58;0.70;;;25.70;99.90;;;;;;5057473;28;20421;-76
2021/07/06 07:35:20;;;;;;;1.00;0.52;;;25.40;99.90;;;;;;5057530;28;20025;-76
2021/07/06 07:37:46;;;;;;;1.70;0.95;;;25.50;99.90;;;;;;5098739;28;20024;-76
2021/07/06 07:40:13;;;;;;;2.20;0.90;;;25.70;99.90;;;;;;5061089;28;20032;-76
2021/07/06 07:42:39;;;;;;;2.63;0.95;;;25.80;99.90;;;;;;5057594;28;20029;-76
2021/07/06 07:45:06;;;;;;;8.93;1.70;;;26.00;99.90;;;;;;5067314;28;20070;-75
2021/07/06 07:47:32;;;;;;;6.13;0.85;;;26.10;99.90;;;;;;5065128;28;20033;-74
2021/07/06 07:49:58;;;;;;;4.22;0.93;;;26.30;99.90;;;;;;5056240;28;20022;-75
2021/07/06 07:52:23;;;;;;;4.20;0.90;;;26.40;99.90;;;;;;5067484;28;20075;-75
2021/07/06 07:54:49;;;;;;;2.42;0.80;;;26.40;99.90;;;;;;5063323;28;20028;-76
2021/07/06 07:57:23;;;;;;;1.50;0.73;;;26.30;99.90;;;;;;5070296;28;20447;-76
2021/07/06 07:59:50;;;;;;;0.60;0.50;;;26.40;99.90;;;;;;5078342;28;20493;-76
2021/07/06 08:02:16;;;;;;;2.03;0.95;;;26.40;99.90;;;;;;5054012;28;20043;-75
2021/07/06 08:04:41;;;;;;;1.48;1.27;;;26.60;99.90;;;;;;5075964;28;20493;-75
2021/07/06 08:07:07;;;;;;;1.75;0.82;;;26.70;99.90;;;;;;5055651;28;20025;-76
2021/07/06 08:09:33;;;;;;;3.97;0.80;;;26.70;99.90;;;;;;5059101;28;20443;-75
2021/07/06 08:11:58;;;;;;;5.07;1.10;;;26.50;99.90;;;;;;5074771;28;20055;-75
2021/07/06 08:14:24;;;;;;;1.73;1.00;;;26.30;99.90;;;;;;5061370;28;20033;-75
2021/07/06 08:16:52;;;;;;;4.00;1.08;;;26.60;99.90;;;;;;5057190;28;20491;-74
2021/07/06 08:19:18;;;;;;;3.97;1.45;;;27.00;99.90;;;;;;5046556;28;20025;-77
2021/07/06 08:21:43;;;;;;;5.88;1.23;;;27.40;99.90;;;;;;5052930;28;20056;-76
2021/07/06 08:24:09;;;;;;;0.85;0.77;;;27.20;99.90;;;;;;5066548;28;20394;-76
2021/07/06 08:26:36;;;;;;;0.93;0.60;;;27.50;99.90;;;;;;5065006;28;20391;-75
2021/07/06 08:29:03;;;;;;;0.65;0.50;;;27.60;99.90;;;;;;5052797;28;20119;-76
2021/07/06 08:31:28;;;;;;;1.45;0.50;;;27.70;99.60;;;;;;5062916;28;20543;-75
2021/07/06 08:33:54;;;;;;;0.68;0.60;;;27.60;99.50;;;;;;5070516;28;20040;-75
2021/07/06 08:36:19;;;;;;;2.42;0.68;;;27.60;99.70;;;;;;5065485;28;20367;-77
2021/07/06 08:38:45;;;;;;;2.10;0.63;;;27.50;99.10;;;;;;5068236;28;20020;-77
2021/07/06 08:41:12;;;;;;;1.33;0.70;;;27.90;99.00;;;;;;5072111;28;20028;-74
2021/07/06 08:43:38;;;;;;;0.77;0.52;;;28.20;98.60;;;;;;5072286;28;20070;-76
2021/07/06 08:46:04;;;;;;;2.15;0.73;;;28.20;98.60;;;;;;5053416;28;20100;-76
2021/07/06 08:48:33;;;;;;;0.57;0.50;;;28.40;97.90;;;;;;5054640;28;20025;-76
2021/07/06 08:51:00;;;;;;;0.73;0.60;;;28.50;96.90;;;;;;5054727;28;20104;-76
2021/07/06 08:53:29;;;;;;;1.65;0.60;;;28.20;97.10;;;;;;5050090;28;20029;-76
2021/07/06 08:55:58;;;;;;;1.75;0.90;;;27.90;97.10;;;;;;5043183;28;20028;-76
2021/07/06 08:58:24;;;;;;;0.57;0.57;;;27.70;97.30;;;;;;5065718;28;20058;-75
2021/07/06 09:00:49;;;;;;;2.97;0.73;;;27.70;97.40;;;;;;5062578;28;20124;-76
2021/07/06 09:03:15;;;;;;;1.10;0.60;;;27.80;97.20;;;;;;5061416;28;20021;-78
2021/07/06 09:05:41;;;;;;;1.75;0.50;;;28.20;97.10;;;;;;5046700;28;20105;-76
2021/07/06 09:08:08;;;;;;;1.40;0.50;;;28.80;96.60;;;;;;5062871;28;20027;-76
2021/07/06 09:10:41;;;;;;;1.20;0.82;;;28.70;96.60;;;;;;5063881;28;20398;-76
2021/07/06 09:13:27;;;;;;;1.77;0.60;;;28.50;96.90;;;;;;5059290;28;20021;-78
2021/07/06 09:15:54;;;;;;;0.47;0.47;;;28.00;96.50;;;;;;5049487;28;20073;-75
2021/07/06 09:18:21;;;;;;;0.80;0.55;;;27.60;96.90;;;;;;5059770;28;20035;-77
2021/07/06 09:20:58;;;;;;;0.88;0.50;;;27.10;97.40;;;;;;5053187;28;20037;-78
2021/07/06 09:23:26;;;;;;;1.05;0.73;;;26.70;98.50;;;;;;5066527;28;20104;-77
2021/07/06 09:26:06;;;;;;;3.97;0.85;;;26.30;99.40;;;;;;5064446;28;20029;-76
2021/07/06 09:28:34;;;;;;;7.38;1.48;;;25.00;99.90;;;;;;5042889;28;20100;-77
2021/07/06 09:31:17;;;;;;;2.75;1.25;;;23.80;99.90;;;;;;5051351;28;20017;-76
2021/07/06 09:34:04;;;;;;;4.32;1.23;;;23.30;99.90;;;;;;5065609;28;20025;-76
2021/07/06 09:36:47;;;;;;;7.32;1.52;;;22.80;99.90;;;;;;5066043;28;20459;-78
2021/07/06 09:39:24;;;;;;;10.25;1.02;;;22.80;99.90;;;;;;5060875;28;20560;-76
2021/07/06 09:42:01;;;;;;;5.18;0.70;;;22.80;99.90;;;;;;5076589;28;20087;-75
2021/07/06 09:44:29;;;;;;;7.10;0.80;;;22.60;99.90;;;;;;5056844;28;20044;-76
2021/07/06 09:47:07;;;;;;;0.75;0.73;;;22.40;99.90;;;;;;5056893;28;20056;-77
2021/07/06 09:49:37;;;;;;;1.13;0.43;;;22.20;99.90;;;;;;5061638;28;20079;-75
2021/07/06 09:52:16;;;;;;;4.05;0.70;;;21.80;99.90;;;;;;5064659;28;20115;-76
2021/07/06 09:54:47;;;;;;;0.30;0.30;;;21.70;99.90;;;;;;5055460;28;20073;-75
2021/07/06 09:57:29;;;;;;;0.50;0.30;;;21.80;99.90;;;;;;5080872;28;20132;-76
2021/07/06 10:00:08;;;;;;;2.83;0.40;;;21.80;99.90;;;;;;5061175;28;20064;-76
2021/07/06 10:02:35;;;;;;;1.35;0.40;;;21.60;99.90;;;;;;5058068;28;20074;-76
2021/07/06 10:05:04;;;;;;;0.57;0.40;;;21.80;99.90;;;;;;5063961;28;20818;-75
2021/07/06 10:07:31;;;;;;;0.93;0.40;;;21.90;99.90;;;;;;5060788;28;20440;-76
2021/07/06 10:09:57;;;;;;;0.95;0.50;;;22.00;99.90;;;;;;5033997;28;20044;-77
2021/07/06 10:12:24;;;;;;;1.85;0.47;;;22.40;99.90;;;;;;5054552;28;20486;-75
2021/07/06 10:14:51;;;;;;;0.40;0.40;;;22.20;99.90;;;;;;5041639;28;20033;-76
2021/07/06 10:17:17;;;;;;;0.90;0.50;;;22.40;99.90;;;;;;5067190;28;20521;-77
2021/07/06 10:19:45;;;;;;;0.73;0.50;;;22.90;99.90;;;;;;5050927;28;20034;-76
2021/07/06 10:22:12;;;;;;;0.50;0.32;;;22.70;99.90;;;;;;5056152;28;20128;-77
2021/07/06 10:24:43;;;;;;;0.40;0.40;;;23.10;99.90;;;;;;5055434;28;20108;-75
2021/07/06 10:27:22;;;;;;;;;;;22.80;99.90;;;;;;5040628;28;20406;-75
2021/07/06 10:30:14;;;;;;;0.95;0.50;;;22.50;99.90;;;;;;5058330;28;20297;-76
2021/07/06 10:32:43;;;;;;;0.45;0.38;;;22.50;99.90;;;;;;5051441;28;20025;-76
2021/07/06 10:35:11;;;;;;;0.88;0.50;;;22.30;99.90;;;;;;5051580;28;20509;-76
2021/07/06 10:37:38;;;;;;;1.67;0.50;;;22.70;99.90;;;;;;5060592;28;20025;-76
2021/07/06 10:40:17;;;;;;;0.82;0.60;;;23.00;99.90;;;;;;5056880;28;20025;-76
2021/07/06 10:42:46;;;;;;;0.98;0.60;;;23.10;99.90;;;;;;5050576;28;20514;-76
2021/07/06 10:45:34;;;;;;;0.77;0.77;;;23.90;99.90;;;;;;5057873;28;20028;-76
2021/07/06 10:48:00;;;;;;;0.50;0.50;;;24.00;99.90;;;;;;5066836;28;20012;-77
2021/07/06 10:50:32;;;;;;;0.88;0.85;;;24.10;99.90;;;;;;5043174;28;20037;-76
2021/07/06 10:53:20;;;;;;;0.50;0.50;;;24.40;99.90;;;;;;5068130;28;20046;-76
2021/07/06 10:56:07;;;;;;;0.80;0.43;;;24.60;99.90;;;;;;5057786;28;20060;-77
2021/07/06 10:58:48;;;;;;;1.85;0.40;;;23.80;99.90;;;;;;5066820;28;20024;-76
2021/07/06 11:01:32;;;;;;;;;;;23.80;99.90;;;;;;5063696;28;20060;-77
2021/07/06 11:04:00;;;;;;;0.60;0.38;;;24.00;99.90;;;;;;5059694;28;20289;-77
2021/07/06 11:06:47;;;;;;;2.35;0.63;;;24.20;99.90;;;;;;5074145;28;20021;-76
2021/07/06 11:09:34;;;;;;;0.40;0.40;;;24.50;99.90;;;;;;5061402;28;20025;-76
2021/07/06 11:12:29;;;;;;;2.60;0.50;;;24.50;99.90;;;;;;5062112;28;20346;-76
2021/07/06 11:14:59;;;;;;;1.13;0.50;;;24.40;99.90;;;;;;5048350;28;20079;-77
2021/07/06 11:17:38;;;;;;;1.85;0.65;;;24.40;99.90;;;;;;5061435;28;20039;-77
2021/07/06 11:20:16;;;;;;;0.38;0.30;;;24.70;99.90;;;;;;5066327;28;20029;-76
2021/07/06 11:22:43;;;;;;;0.63;0.40;;;24.70;99.90;;;;;;5060103;28;20127;-76
2021/07/06 11:25:25;;;;;;;2.15;0.98;;;24.60;99.90;;;;;;5048967;28;20055;-77
2021/07/06 11:28:02;;;;;;;0.77;0.38;;;24.60;99.90;;;;;;5061265;28;20490;-76
2021/07/06 11:30:35;;;;;;;0.63;0.50;;;24.90;99.90;;;;;;5054615;28;20029;-76
2021/07/06 11:33:01;;;;;;;0.73;0.40;;;25.40;99.90;;;;;;5071659;28;20074;-76
2021/07/06 11:35:29;;;;;;;0.38;0.38;;;25.60;99.90;;;;;;5063128;28;20437;-76
2021/07/06 11:37:55;;;;;;;0.88;0.40;;;25.40;99.90;;;;;;5066272;28;20030;-77
2021/07/06 11:40:21;;;;;;;0.30;0.30;;;25.50;99.90;;;;;;5063102;28;20115;-76
2021/07/06 11:42:47;;;;;;;0.40;0.38;;;25.50;99.90;;;;;;5069071;28;20498;-77
2021/07/06 11:45:13;;;;;;;1.02;0.45;;;25.40;99.90;;;;;;5047933;28;20025;-77
2021/07/06 11:47:38;;;;;;;0.40;0.35;;;24.80;99.90;;;;;;5064371;28;20051;-77
2021/07/06 11:50:23;;;;;;;0.57;0.40;;;24.50;99.90;;;;;;5059735;28;20090;-76
2021/07/06 11:52:48;;;;;;;0.40;0.30;;;24.40;99.90;;;;;;5056994;28;20025;-75
2021/07/06 11:55:21;;;;;;;0.50;0.30;;;24.20;99.90;;;;;;5056832;28;20036;-77
2021/07/06 11:57:51;;;;;;;0.40;0.30;;;24.00;99.90;;;;;;5064928;28;20501;-76
2021/07/06 12:00:19;;;;;;;0.67;0.43;;;23.60;99.90;;;;;;5043312;28;20044;-79
2021/07/06 12:02:45;;;;;;;0.57;0.57;;;23.50;99.90;;;;;;5058554;28;20051;-76
2021/07/06 12:05:18;;;;;;;0.30;0.30;;;23.60;99.90;;;;;;5060117;28;20546;-77
2021/07/06 12:07:45;;;;;;;0.50;0.40;;;23.80;99.90;;;;;;5059243;28;20082;-76
2021/07/06 12:10:11;;;;;;;1.23;0.40;;;23.80;99.90;;;;;;5064574;28;20060;-77
2021/07/06 12:12:37;;;;;;;1.83;0.52;;;24.10;99.90;;;;;;5059406;28;20055;-76
2021/07/06 12:15:04;;;;;;;0.38;0.38;;;24.40;99.90;;;;;;5049429;28;20033;-77
2021/07/06 12:17:32;;;;;;;0.68;0.40;;;24.50;99.90;;;;;;5054744;28;20040;-76
2021/07/06 12:20:00;;;;;;;1.30;0.40;;;24.50;99.90;;;;;;5072667;28;20017;-77
2021/07/06 12:22:27;;;;;;;0.70;0.30;;;24.40;99.90;;;;;;5082582;28;20044;-76
2021/07/06 12:24:55;;;;;;;0.50;0.50;;;24.60;99.90;;;;;;5042973;28;20029;-76
2021/07/06 12:27:22;;;;;;;1.73;0.40;;;25.00;99.90;;;;;;5053444;28;20074;-76
2021/07/06 12:30:01;;;;;;;0.40;0.40;;;25.20;99.90;;;;;;5054921;28;20024;-76
2021/07/06 12:32:27;;;;;;;0.60;0.40;;;25.10;99.90;;;;;;5050531;28;20026;-77
2021/07/06 12:34:58;;;;;;;0.40;0.40;;;25.00;99.90;;;;;;5065301;28;20021;-76
2021/07/06 12:37:26;;;;;;;0.40;0.30;;;24.80;99.90;;;;;;5061456;28;20021;-76
2021/07/06 12:40:00;;;;;;;1.10;0.30;;;24.60;99.90;;;;;;5062642;28;20029;-76
2021/07/06 12:42:25;;;;;;;2.17;0.40;;;24.40;99.90;;;;;;5060991;28;20032;-77
2021/07/06 12:44:56;;;;;;;2.35;0.50;;;24.50;99.90;;;;;;5071494;28;20021;-77
2021/07/06 12:47:38;;;;;;;0.55;0.43;;;25.00;99.90;;;;;;5055631;28;20017;-75
2021/07/06 12:50:11;;;;;;;1.75;1.15;;;25.30;99.90;;;;;;5062735;28;20160;-76
2021/07/06 12:52:42;;;;;;;0.45;0.40;;;24.70;99.90;;;;;;5052920;28;20048;-76
2021/07/06 12:55:11;;;;;;;0.40;0.35;;;24.30;99.90;;;;;;5054873;28;20029;-76